This is the latest recevied weather packets stored in our database for station/object VK2BLR. If no packets are shown the sender has not sent any weather packets the latest 10 day(s).
| Time | Temp. | Humidity | Pressure | Rain* | Wind** | Luminosity | Snow |
|---|---|---|---|---|---|---|---|
| 1777425679 | 27.22° C | 28% | 1026.2 hPa | 0 mm | - | - | - |
| 1777424781 | 26.67° C | 27% | 1026.1 hPa | 0 mm | - | - | - |
| 1777423880 | 26.67° C | 26% | 1026.2 hPa | 0 mm | - | - | - |
| 1777422980 | 26.11° C | 31% | 1026.2 hPa | 0 mm | - | - | - |
| 1777422081 | 25.56° C | 30% | 1026.3 hPa | 0 mm | - | - | - |
| 1777421180 | 24.44° C | 34% | 1026.4 hPa | 0 mm | - | - | - |
| 1777420281 | 23.33° C | 36% | 1026.2 hPa | 0 mm | - | - | - |
| 1777419379 | 22.78° C | 40% | 1026.3 hPa | 0 mm | - | - | - |
| 1777418480 | 21.67° C | 42% | 1026.1 hPa | 0 mm | - | - | - |
| 1777417581 | 22.22° C | 41% | 1026.2 hPa | 0 mm | - | - | - |
| 1777416680 | 21.67° C | 42% | 1026 hPa | 0 mm | - | - | - |
| 1777415780 | 20.56° C | 45% | 1026.1 hPa | 0 mm | - | - | - |
| 1777414880 | 17.78° C | 49% | 1025.9 hPa | 0 mm | - | - | - |
| 1777413980 | 16.11° C | 59% | 1025.7 hPa | 0 mm | - | - | - |
| 1777413079 | 13.89° C | 63% | 1025.4 hPa | 0 mm | - | - | - |
| 1777412179 | 12.22° C | 70% | 1025.2 hPa | 0 mm | - | - | - |
| 1777411281 | 10.56° C | 70% | 1025.1 hPa | 0 mm | - | - | - |
| 1777410380 | 10° C | 70% | 1025 hPa | 0 mm | - | - | - |
| 1777409480 | 10° C | 69% | 1025 hPa | 0 mm | - | - | - |
| 1777408581 | 10° C | 69% | 1024.7 hPa | 0 mm | - | - | - |
| 1777407681 | 10° C | 68% | 1024.5 hPa | 0 mm | - | - | - |
| 1777406781 | 10.56° C | 68% | 1024.4 hPa | 0 mm | - | - | - |
| 1777405879 | 10.56° C | 67% | 1024 hPa | 0 mm | - | - | - |
| 1777404981 | 10.56° C | 67% | 1023.9 hPa | 0 mm | - | - | - |
| 1777404080 | 10° C | 66% | 1023.9 hPa | 0 mm | - | - | - |
* Rain latest hour (hover to see other rain measurements)
** Current wind speed in m/s (hover to see current wind gust speed)